Time;durP1;ratioP1;P1;durP2;ratioP2;P2;SDS_P1;SDS_P2;PMS_P1;PMS_P2;Temp;Humidity;BMP_temperature;BMP_pressure;BME280_temperature;BME280_humidity;BME280_pressure;Samples;Min_cycle;Max_cycle;Signal;HPM_P1;HPM_P2
2023/08/04 00:02:00;;;;;;;0.20;0.20;;;;;;;12.84;100.00;100892.19;5055185;28;20028;-50
2023/08/04 00:04:25;;;;;;;0.10;0.10;;;;;;;12.80;100.00;100883.50;5054485;28;20021;-50
2023/08/04 00:06:51;;;;;;;0.10;0.10;;;;;;;12.82;100.00;100892.19;5053870;28;20029;-51
2023/08/04 00:09:17;;;;;;;0.10;0.10;;;;;;;12.78;100.00;100889.47;5054664;28;20024;-51
2023/08/04 00:11:42;;;;;;;0.10;0.10;;;;;;;12.72;100.00;100886.75;5054333;28;20116;-51
2023/08/04 00:14:08;;;;;;;0.10;0.10;;;;;;;12.66;100.00;100895.25;5054207;28;20033;-50
2023/08/04 00:16:33;;;;;;;0.20;0.20;;;;;;;12.68;100.00;100891.00;5054266;28;20025;-50
2023/08/04 00:18:58;;;;;;;0.17;0.17;;;;;;;12.64;100.00;100891.75;5054489;28;20532;-50
2023/08/04 00:21:24;;;;;;;0.10;0.10;;;;;;;12.63;100.00;100905.56;5053464;28;20025;-51
2023/08/04 00:23:49;;;;;;;0.20;0.20;;;;;;;12.60;100.00;100905.47;5054171;28;20096;-48
2023/08/04 00:26:15;;;;;;;0.10;0.10;;;;;;;12.57;100.00;100902.81;5054153;28;20028;-51
2023/08/04 00:28:40;;;;;;;0.10;0.10;;;;;;;12.54;100.00;100910.50;5053797;28;20036;-50
2023/08/04 00:31:05;;;;;;;0.10;0.10;;;;;;;12.46;100.00;100911.22;5054478;28;20028;-51
2023/08/04 00:33:31;;;;;;;0.17;0.17;;;;;;;12.41;100.00;100910.22;5053913;28;20021;-50
2023/08/04 00:35:56;;;;;;;0.20;0.20;;;;;;;12.49;100.00;100903.50;5053736;28;20033;-51
2023/08/04 00:38:21;;;;;;;0.10;0.10;;;;;;;12.45;100.00;100911.19;5054095;28;20024;-50
2023/08/04 00:40:47;;;;;;;0.13;0.13;;;;;;;12.38;100.00;100915.31;5053788;28;20090;-50
2023/08/04 00:43:12;;;;;;;0.20;0.20;;;;;;;12.38;100.00;100915.31;5053348;28;20028;-51
2023/08/04 00:45:38;;;;;;;0.10;0.10;;;;;;;12.38;100.00;100920.47;5053725;28;20036;-51
2023/08/04 00:48:04;;;;;;;0.20;0.20;;;;;;;12.33;100.00;100919.50;5053752;28;20040;-51
2023/08/04 00:50:30;;;;;;;0.20;0.20;;;;;;;12.31;100.00;100923.78;5053177;28;20029;-52
2023/08/04 00:52:56;;;;;;;0.20;0.20;;;;;;;12.30;100.00;100922.03;5053819;28;20025;-50
2023/08/04 00:55:21;;;;;;;0.20;0.20;;;;;;;12.28;100.00;100918.56;5053749;28;20028;-52
2023/08/04 00:57:47;;;;;;;0.20;0.20;;;;;;;12.18;100.00;100922.63;5053241;28;20083;-51
2023/08/04 01:00:13;;;;;;;0.10;0.10;;;;;;;12.23;100.00;100925.31;5053655;28;20436;-51
2023/08/04 01:02:38;;;;;;;0.20;0.20;;;;;;;12.21;100.00;100932.16;5052747;28;20020;-50
2023/08/04 01:05:05;;;;;;;0.20;0.20;;;;;;;12.16;100.00;100935.50;5053597;28;20021;-51
2023/08/04 01:07:39;;;;;;;0.20;0.20;;;;;;;12.15;100.00;100936.31;5053278;28;20108;-50
2023/08/04 01:10:26;;;;;;;0.20;0.20;;;;;;;12.09;100.00;100948.22;5052929;28;20104;-50
2023/08/04 01:13:04;;;;;;;0.20;0.20;;;;;;;12.07;100.00;100950.78;5053637;28;20039;-51
2023/08/04 01:15:31;;;;;;;0.20;0.20;;;;;;;11.88;100.00;100943.34;5052997;28;20027;-51
2023/08/04 01:17:57;;;;;;;0.10;0.10;;;;;;;11.86;100.00;100940.72;5052860;28;20021;-51
2023/08/04 01:20:23;;;;;;;0.20;0.20;;;;;;;11.92;100.00;100945.19;5053097;28;20032;-48
2023/08/04 01:22:49;;;;;;;0.20;0.20;;;;;;;11.97;100.00;100941.91;5053330;28;20029;-51
2023/08/04 01:25:14;;;;;;;0.20;0.20;;;;;;;12.03;100.00;100946.34;5052899;28;20092;-49
2023/08/04 01:28:00;;;;;;;0.20;0.20;;;;;;;11.98;100.00;100954.00;5052918;28;20036;-51
2023/08/04 01:30:27;;;;;;;0.20;0.20;;;;;;;11.95;100.00;100946.16;5052554;28;20377;-51
2023/08/04 01:32:53;;;;;;;0.13;0.13;;;;;;;11.98;100.00;100945.34;5052777;28;20025;-50
2023/08/04 01:35:18;;;;;;;0.20;0.20;;;;;;;11.98;100.00;100951.41;5053363;28;20465;-51
2023/08/04 01:37:44;;;;;;;0.20;0.20;;;;;;;11.97;100.00;100956.53;5051464;28;20556;-49
2023/08/04 01:40:13;;;;;;;0.20;0.20;;;;;;;11.96;100.00;100957.38;5052916;28;20033;-48
2023/08/04 01:42:39;;;;;;;0.20;0.20;;;;;;;11.99;100.00;100949.69;5052794;28;20025;-51
2023/08/04 01:45:05;;;;;;;0.20;0.20;;;;;;;12.00;100.00;100954.88;5051975;28;20053;-48
2023/08/04 01:47:31;;;;;;;0.15;0.15;;;;;;;12.07;100.00;100961.13;5052921;28;20021;-49
2023/08/04 01:49:56;;;;;;;0.20;0.20;;;;;;;12.00;100.00;100961.78;5053105;28;20082;-50
2023/08/04 01:52:22;;;;;;;0.20;0.20;;;;;;;11.96;100.00;100957.38;5052042;28;20461;-51
2023/08/04 01:54:47;;;;;;;0.20;0.20;;;;;;;11.99;100.00;100968.66;5052908;28;20044;-51
2023/08/04 01:57:13;;;;;;;0.15;0.15;;;;;;;12.00;100.00;100959.19;5052812;28;20089;-47
2023/08/04 01:59:38;;;;;;;0.20;0.20;;;;;;;12.00;100.00;100961.78;5051710;28;20029;-48
2023/08/04 02:02:03;;;;;;;0.20;0.20;;;;;;;12.02;100.00;100965.28;5053188;28;20033;-47
2023/08/04 02:04:29;;;;;;;0.10;0.10;;;;;;;12.04;100.00;100960.16;5052338;28;20082;-50
2023/08/04 02:06:54;;;;;;;0.20;0.20;;;;;;;12.04;100.00;100962.75;5052219;28;20032;-49
2023/08/04 02:09:19;;;;;;;0.20;0.20;;;;;;;12.07;100.00;100963.69;5052932;28;20031;-50
2023/08/04 02:11:45;;;;;;;0.20;0.20;;;;;;;12.06;100.00;100966.22;5052454;28;20079;-51
2023/08/04 02:14:11;;;;;;;0.20;0.20;;;;;;;12.05;100.00;100967.06;5052235;28;20021;-50
2023/08/04 02:16:36;;;;;;;0.20;0.20;;;;;;;11.98;100.00;100974.66;5052671;28;20048;-50
2023/08/04 02:19:04;;;;;;;0.10;0.10;;;;;;;12.01;100.00;100981.63;5052648;28;20029;-50
2023/08/04 02:21:30;;;;;;;0.20;0.20;;;;;;;12.02;100.00;100983.38;5051834;28;20025;-50
2023/08/04 02:23:55;;;;;;;0.20;0.20;;;;;;;12.02;100.00;100976.47;5053212;28;20423;-51
2023/08/04 02:26:21;;;;;;;0.20;0.20;;;;;;;12.00;100.00;100982.44;5052511;28;20477;-48
2023/08/04 02:28:46;;;;;;;0.20;0.20;;;;;;;12.06;100.00;100980.03;5051694;28;20031;-51
2023/08/04 02:31:11;;;;;;;0.20;0.20;;;;;;;12.09;100.00;100974.91;5052412;28;20094;-50
2023/08/04 02:33:37;;;;;;;0.20;0.20;;;;;;;12.04;100.00;100979.09;5051868;28;20028;-51
2023/08/04 02:36:02;;;;;;;0.20;0.20;;;;;;;12.06;100.00;100979.13;5051891;28;20017;-51
2023/08/04 02:38:28;;;;;;;0.30;0.30;;;;;;;12.10;100.00;100986.16;5052222;28;20032;-51
2023/08/04 02:40:53;;;;;;;0.20;0.20;;;;;;;12.08;100.00;100988.66;5052138;28;20056;-51
2023/08/04 02:43:19;;;;;;;0.20;0.20;;;;;;;12.13;100.00;100986.22;5051571;28;20412;-49
2023/08/04 02:45:51;;;;;;;0.10;0.10;;;;;;;12.16;100.00;100992.34;5052304;28;20052;-49
2023/08/04 02:48:16;;;;;;;0.20;0.20;;;;;;;12.18;100.00;100993.25;5053325;28;20451;-51
2023/08/04 02:50:41;;;;;;;0.30;0.30;;;;;;;12.19;100.00;100984.66;5056073;28;20544;-51
2023/08/04 02:53:07;;;;;;;0.20;0.20;;;;;;;12.24;100.00;100981.31;5056340;28;20043;-50
2023/08/04 02:55:32;;;;;;;0.20;0.20;;;;;;;12.26;100.00;100984.81;5055054;28;20025;-51
2023/08/04 02:57:57;;;;;;;0.20;0.20;;;;;;;12.31;100.00;100980.63;5056095;28;20389;-51
2023/08/04 03:00:23;;;;;;;0.10;0.10;;;;;;;12.33;100.00;100982.41;5055888;28;20048;-48
2023/08/04 03:02:48;;;;;;;0.20;0.20;;;;;;;12.38;100.00;100987.69;5055376;28;20025;-49
2023/08/04 03:05:13;;;;;;;0.10;0.10;;;;;;;12.38;100.00;100982.50;5056046;28;20385;-50
2023/08/04 03:07:39;;;;;;;0.20;0.20;;;;;;;12.41;100.00;100982.59;5055480;28;20396;-50
2023/08/04 03:10:05;;;;;;;0.10;0.10;;;;;;;12.43;100.00;100991.25;5055230;28;20029;-48
2023/08/04 03:12:30;;;;;;;0.20;0.20;;;;;;;12.46;100.00;100985.28;5055367;28;20021;-51
2023/08/04 03:14:56;;;;;;;0.13;0.13;;;;;;;12.46;100.00;101001.69;5055455;28;20099;-50
2023/08/04 03:17:21;;;;;;;0.20;0.20;;;;;;;12.47;100.00;100987.94;5055376;28;20472;-50
2023/08/04 03:19:46;;;;;;;0.10;0.10;;;;;;;12.46;100.00;101001.69;5055525;28;20035;-51
2023/08/04 03:22:12;;;;;;;0.20;0.20;;;;;;;12.50;100.00;100998.34;5055313;28;20036;-50
2023/08/04 03:24:37;;;;;;;0.17;0.17;;;;;;;12.48;100.00;100992.25;5054753;28;20036;-51
2023/08/04 03:27:02;;;;;;;0.20;0.20;;;;;;;12.47;100.00;100999.97;5055426;28;20028;-51
2023/08/04 03:29:28;;;;;;;0.20;0.20;;;;;;;12.46;100.00;101001.69;5054918;28;20454;-50
2023/08/04 03:31:53;;;;;;;0.20;0.20;;;;;;;12.47;100.00;100998.28;5054840;28;20028;-50
2023/08/04 03:34:18;;;;;;;0.17;0.17;;;;;;;12.48;100.00;100999.13;5055625;28;20036;-50
2023/08/04 03:36:44;;;;;;;0.15;0.15;;;;;;;12.48;100.00;101000.00;5054793;28;20063;-52
2023/08/04 03:39:09;;;;;;;0.20;0.20;;;;;;;12.51;100.00;101000.09;5054788;28;20109;-50
2023/08/04 03:41:34;;;;;;;0.20;0.20;;;;;;;12.51;100.00;101009.53;5054853;28;20542;-49
2023/08/04 03:44:00;;;;;;;0.10;0.10;;;;;;;12.49;100.00;101009.50;5054787;28;20181;-49
2023/08/04 03:46:25;;;;;;;0.10;0.10;;;;;;;12.51;100.00;101004.38;5054318;28;20028;-49
2023/08/04 03:48:50;;;;;;;0.20;0.20;;;;;;;12.54;100.00;101000.97;5055324;28;20031;-51
2023/08/04 03:51:17;;;;;;;0.10;0.10;;;;;;;12.50;100.00;101003.50;5054766;28;20020;-52
2023/08/04 03:53:43;;;;;;;0.20;0.20;;;;;;;12.49;100.00;101001.75;5054152;28;20480;-51
2023/08/04 03:56:08;;;;;;;0.20;0.20;;;;;;;12.51;100.00;101007.84;5054857;28;20078;-50
2023/08/04 03:58:33;;;;;;;0.10;0.10;;;;;;;12.50;100.00;101003.50;5053619;28;20017;-51
2023/08/04 04:00:59;;;;;;;0.20;0.20;;;;;;;12.51;100.00;101012.13;5053953;28;20116;-50
2023/08/04 04:03:24;;;;;;;0.20;0.20;;;;;;;12.50;100.00;101008.69;5054635;28;20017;-51
2023/08/04 04:05:49;;;;;;;0.20;0.20;;;;;;;12.50;100.00;101011.25;5054265;28;20025;-50
2023/08/04 04:08:15;;;;;;;0.20;0.20;;;;;;;12.50;100.00;101019.00;5054858;28;20096;-51
2023/08/04 04:10:40;;;;;;;0.20;0.20;;;;;;;12.52;100.00;101014.78;5054304;28;20128;-51
2023/08/04 04:13:05;;;;;;;0.15;0.15;;;;;;;12.49;100.00;101017.25;5054063;28;20029;-51
2023/08/04 04:15:31;;;;;;;0.20;0.20;;;;;;;12.50;100.00;101020.75;5054478;28;20067;-51
2023/08/04 04:17:56;;;;;;;0.20;0.20;;;;;;;12.50;100.00;101021.59;5054450;28;20021;-46
2023/08/04 04:20:21;;;;;;;0.20;0.20;;;;;;;12.50;100.00;101028.50;5054015;28;20055;-51
2023/08/04 04:22:47;;;;;;;0.20;0.20;;;;;;;12.49;100.00;101022.44;5054252;28;20113;-50
2023/08/04 04:25:12;;;;;;;0.20;0.20;;;;;;;12.47;100.00;101023.22;5054174;28;20040;-51
2023/08/04 04:27:37;;;;;;;0.13;0.13;;;;;;;12.46;100.00;101032.72;5053419;28;20473;-50
2023/08/04 04:30:03;;;;;;;0.20;0.20;;;;;;;12.48;100.00;101033.59;5054245;28;20070;-51
2023/08/04 04:32:28;;;;;;;0.20;0.20;;;;;;;12.46;100.00;101032.72;5053676;28;20036;-49
2023/08/04 04:34:53;;;;;;;0.15;0.15;;;;;;;12.47;100.00;101026.72;5053792;28;20021;-49
2023/08/04 04:37:19;;;;;;;0.20;0.20;;;;;;;12.50;100.00;101033.66;5054217;28;20079;-47
2023/08/04 04:39:46;;;;;;;0.10;0.10;;;;;;;12.49;100.00;101032.78;5053618;28;20029;-51
2023/08/04 04:42:11;;;;;;;0.20;0.20;;;;;;;12.51;100.00;101038.88;5053450;28;20487;-51
2023/08/04 04:44:36;;;;;;;0.10;0.10;;;;;;;12.51;100.00;101040.56;5053702;28;20045;-48
2023/08/04 04:47:02;;;;;;;0.20;0.20;;;;;;;12.50;100.00;101039.69;5054105;28;20120;-50
2023/08/04 04:49:28;;;;;;;0.20;0.20;;;;;;;12.52;100.00;101047.47;5053030;28;20036;-48
2023/08/04 04:51:53;;;;;;;0.10;0.10;;;;;;;12.48;100.00;101056.88;5053804;28;20029;-50
2023/08/04 04:54:19;;;;;;;0.10;0.10;;;;;;;12.50;100.00;101052.63;5053718;28;20572;-50
2023/08/04 04:56:45;;;;;;;0.20;0.20;;;;;;;12.46;100.00;101049.91;5052827;28;20096;-47
2023/08/04 04:59:11;;;;;;;0.10;0.10;;;;;;;12.45;100.00;101054.22;5053751;28;20488;-48
2023/08/04 05:01:36;;;;;;;0.10;0.10;;;;;;;12.46;100.00;101055.97;5053338;28;20299;-50
2023/08/04 05:04:01;;;;;;;0.10;0.10;;;;;;;12.40;100.00;101063.56;5053300;28;20061;-51
2023/08/04 05:06:27;;;;;;;0.20;0.20;;;;;;;12.42;100.00;101067.06;5053303;28;20108;-48
2023/08/04 05:08:52;;;;;;;0.20;0.20;;;;;;;12.44;100.00;101059.34;5052743;28;20496;-47
2023/08/04 05:11:17;;;;;;;0.20;0.20;;;;;;;12.50;100.00;101065.53;5053404;28;20017;-48
2023/08/04 05:13:43;;;;;;;0.20;0.20;;;;;;;12.54;100.00;101070.78;5053366;28;20025;-47
2023/08/04 05:16:08;;;;;;;0.20;0.20;;;;;;;12.61;100.00;101078.72;5052588;28;20465;-48
2023/08/04 05:18:34;;;;;;;0.15;0.15;;;;;;;12.66;100.00;101078.84;5053139;28;20029;-51
2023/08/04 05:20:59;;;;;;;0.20;0.20;;;;;;;12.73;100.00;101083.34;5053175;28;20024;-47
2023/08/04 05:23:24;;;;;;;0.20;0.20;;;;;;;12.81;100.00;101076.66;5052494;28;20472;-51
2023/08/04 05:25:50;;;;;;;0.13;0.13;;;;;;;12.83;100.00;101074.97;5053177;28;20029;-50
2023/08/04 05:28:32;;;;;;;0.10;0.10;;;;;;;12.92;100.00;101073.44;5053240;28;20074;-51
2023/08/04 05:31:00;;;;;;;0.20;0.20;;;;;;;12.96;100.00;101080.44;5052627;28;20393;-51
2023/08/04 05:33:27;;;;;;;0.10;0.10;;;;;;;13.04;100.00;101088.38;5052839;28;20017;-48
2023/08/04 05:35:53;;;;;;;0.20;0.20;;;;;;;13.09;100.00;101084.19;5052875;28;20052;-51
2023/08/04 05:38:18;;;;;;;0.10;0.10;;;;;;;13.16;100.00;101089.53;5052441;28;20100;-50
2023/08/04 05:40:45;;;;;;;0.10;0.10;;;;;;;13.27;100.00;101088.91;5052655;28;20109;-48
2023/08/04 05:43:12;;;;;;;0.10;0.10;;;;;;;13.30;100.00;101086.41;5052668;28;20552;-49
2023/08/04 05:45:40;;;;;;;0.15;0.15;;;;;;;13.42;100.00;101091.84;5052066;28;20295;-51
2023/08/04 05:48:05;;;;;;;0.10;0.10;;;;;;;13.48;100.00;101083.38;5052887;28;20552;-50
2023/08/04 05:50:31;;;;;;;0.20;0.20;;;;;;;13.60;100.00;101090.53;5052485;28;20101;-48
2023/08/04 05:52:57;;;;;;;0.20;0.20;;;;;;;13.68;100.00;101094.13;5052234;28;20016;-48
2023/08/04 05:55:23;;;;;;;0.10;0.10;;;;;;;13.75;100.00;101101.19;5052395;28;20036;-47
2023/08/04 05:57:50;;;;;;;0.15;0.15;;;;;;;13.89;100.00;101101.47;5052398;28;20025;-47
2023/08/04 06:00:15;;;;;;;0.10;0.10;;;;;;;14.04;100.00;101098.31;5052413;28;20037;-50
2023/08/04 06:02:45;;;;;;;0.10;0.10;;;;;;;14.13;100.00;101102.78;5052427;28;20079;-50
2023/08/04 06:05:13;;;;;;;0.15;0.15;;;;;;;14.20;100.00;101108.97;5051810;28;20036;-50
2023/08/04 06:07:42;;;;;;;0.15;0.15;;;;;;;14.26;100.00;101109.09;5052563;28;20029;-51
2023/08/04 06:10:08;;;;;;;0.20;0.20;;;;;;;14.27;100.00;101110.84;5052664;28;20017;-51
2023/08/04 06:12:34;;;;;;;0.10;0.10;;;;;;;14.26;100.00;101106.50;5051757;28;20032;-47
2023/08/04 06:15:00;;;;;;;0.10;0.10;;;;;;;14.28;100.00;101112.56;5052845;28;20023;-48
2023/08/04 06:17:25;;;;;;;0.10;0.10;;;;;;;14.27;100.00;101122.06;5052045;28;20029;-51
2023/08/04 06:19:51;;;;;;;0.10;0.10;;;;;;;14.34;100.00;101128.25;5051851;28;20024;-50
2023/08/04 06:22:17;;;;;;;0.10;0.10;;;;;;;14.41;100.00;101119.75;5052906;28;20064;-50
2023/08/04 06:24:42;;;;;;;0.10;0.10;;;;;;;14.42;100.00;101125.78;5056329;28;20112;-48
2023/08/04 06:27:08;;;;;;;0.10;0.10;;;;;;;14.52;100.00;101134.63;5056197;28;20032;-45
2023/08/04 06:29:34;;;;;;;0.10;0.10;;;;;;;14.64;100.00;101132.25;5056483;28;20021;-47
2023/08/04 06:32:00;;;;;;;0.10;0.10;;;;;;;14.75;100.00;101135.91;5056231;28;20017;-51
2023/08/04 06:34:26;;;;;;;0.20;0.20;;;;;;;14.79;100.00;101135.13;5055671;28;20032;-50
2023/08/04 06:36:51;;;;;;;0.10;0.10;;;;;;;14.90;100.00;101135.31;5056401;28;20025;-50
2023/08/04 06:39:17;;;;;;;0.10;0.10;;;;;;;14.97;100.00;101142.31;5056311;28;20103;-50
2023/08/04 06:41:43;;;;;;;0.10;0.10;;;;;;;15.24;100.00;101140.16;5055528;28;20115;-48
2023/08/04 06:44:08;;;;;;;0.10;0.10;;;;;;;15.55;100.00;101143.19;5056100;28;20044;-48
2023/08/04 06:46:34;;;;;;;0.10;0.10;;;;;;;15.59;100.00;101137.19;5055726;28;20036;-49
2023/08/04 06:48:59;;;;;;;0.10;0.10;;;;;;;15.86;100.00;101151.44;5055539;28;20024;-49
2023/08/04 06:51:24;;;;;;;0.10;0.10;;;;;;;15.78;100.00;101149.56;5055719;28;20028;-46
2023/08/04 06:53:50;;;;;;;0.10;0.10;;;;;;;15.92;100.00;101148.88;5056048;28;20025;-46
2023/08/04 06:56:15;;;;;;;0.10;0.10;;;;;;;15.93;100.00;101148.03;5055484;28;20052;-45
2023/08/04 06:58:41;;;;;;;0.10;0.10;;;;;;;16.34;100.00;101160.66;5055744;28;20033;-46
2023/08/04 07:01:06;;;;;;;0.10;0.10;;;;;;;16.30;100.00;101159.75;5055860;28;20035;-49
2023/08/04 07:03:32;;;;;;;0.10;0.10;;;;;;;16.56;100.00;101166.09;5055305;28;20420;-50
2023/08/04 07:05:57;;;;;;;0.10;0.10;;;;;;;16.69;100.00;101161.88;5056426;28;20025;-50
2023/08/04 07:08:22;;;;;;;0.10;0.10;;;;;;;16.80;100.00;101162.84;5054982;28;20028;-47
2023/08/04 07:10:47;;;;;;;0.10;0.10;;;;;;;16.83;100.00;101160.25;5055973;28;20427;-50
2023/08/04 07:13:13;;;;;;;0.10;0.10;;;;;;;16.92;100.00;101165.56;5055934;28;20025;-47
2023/08/04 07:15:38;;;;;;;0.00;0.00;;;;;;;16.96;100.00;101169.06;5054976;28;20037;-47
2023/08/04 07:18:03;;;;;;;0.10;0.10;;;;;;;17.15;100.00;101171.84;5055682;28;20017;-49
2023/08/04 07:20:31;;;;;;;0.10;0.10;;;;;;;17.14;100.00;101173.56;5054984;28;20473;-50
2023/08/04 07:22:56;;;;;;;0.10;0.10;;;;;;;17.05;100.00;101186.50;5055334;28;20028;-49
2023/08/04 07:25:22;;;;;;;0.00;0.00;;;;;;;17.15;100.00;101184.88;5055747;28;20021;-51
2023/08/04 07:27:47;;;;;;;0.10;0.10;;;;;;;17.26;100.00;101180.59;5055365;28;20078;-50
2023/08/04 07:30:13;;;;;;;0.10;0.10;;;;;;;17.27;100.00;101179.72;5054961;28;20435;-49
2023/08/04 07:32:39;;;;;;;0.10;0.10;;;;;;;17.43;100.00;101184.19;5055096;28;20071;-50
2023/08/04 07:35:04;;;;;;;0.08;0.08;;;;;;;17.57;100.00;101183.41;5053617;28;20032;-50
2023/08/04 07:37:29;;;;;;;0.10;0.10;;;;;;;17.59;100.00;101184.28;5054727;28;20100;-49
2023/08/04 07:39:55;;;;;;;0.00;0.00;;;;;;;17.47;100.00;101186.81;5055504;28;20017;-48
2023/08/04 07:42:20;;;;;;;0.10;0.10;;;;;;;17.67;100.00;101186.94;5055308;28;20376;-50
2023/08/04 07:44:45;;;;;;;0.05;0.05;;;;;;;17.87;100.00;101185.31;5054182;28;20083;-50
2023/08/04 07:47:11;;;;;;;0.00;0.00;;;;;;;17.90;100.00;101190.53;5055026;28;20021;-45
2023/08/04 07:49:36;;;;;;;0.00;0.00;;;;;;;18.04;100.00;101190.63;5054541;28;20505;-46
2023/08/04 07:52:01;;;;;;;0.03;0.03;;;;;;;17.94;100.00;101191.47;5054736;28;20071;-49
2023/08/04 07:54:26;;;;;;;0.00;0.00;;;;;;;18.22;100.00;101196.81;5054716;28;20373;-49
2023/08/04 07:56:52;;;;;;;0.00;0.00;;;;;;;18.02;100.00;101205.38;5054713;28;20021;-50
2023/08/04 07:59:17;;;;;;;0.00;0.00;;;;;;;18.16;100.00;101202.84;5054280;28;20040;-48
2023/08/04 08:01:42;;;;;;;0.00;0.00;;;;;;;18.12;100.00;101205.47;5054528;28;20066;-47
2023/08/04 08:04:08;;;;;;;0.10;0.10;;;;;;;18.14;100.00;101203.72;5054580;28;20021;-49
2023/08/04 08:06:33;;;;;;;0.00;0.00;;;;;;;18.19;100.00;101202.00;5054205;28;20029;-49
2023/08/04 08:08:58;;;;;;;0.00;0.00;;;;;;;18.27;100.00;101206.38;5055047;28;20079;-49
2023/08/04 08:11:24;;;;;;;0.00;0.00;;;;;;;18.24;100.00;101208.09;5054453;28;20025;-49
2023/08/04 08:13:49;;;;;;;0.10;0.10;;;;;;;18.46;100.00;101206.41;5054301;28;20048;-50
2023/08/04 08:16:17;;;;;;;0.10;0.10;;;;;;;18.35;100.00;101209.00;5054591;28;20110;-50
2023/08/04 08:18:42;;;;;;;0.00;0.00;;;;;;;18.46;100.00;101202.94;5053531;28;20033;-50
2023/08/04 08:21:09;;;;;;;0.00;0.00;;;;;;;18.61;100.00;101208.22;5054663;28;20051;-49
2023/08/04 08:23:35;;;;;;;0.00;0.00;;;;;;;19.02;100.00;101209.19;5054299;28;20031;-50
2023/08/04 08:26:03;;;;;;;0.00;0.00;;;;;;;19.07;100.00;101216.13;5054092;28;20036;-50
2023/08/04 08:28:28;;;;;;;0.10;0.10;;;;;;;19.28;100.00;101206.53;5054186;28;20029;-48
2023/08/04 08:30:54;;;;;;;0.00;0.00;;;;;;;19.32;100.00;101218.72;5054132;28;20025;-50
2023/08/04 08:33:20;;;;;;;0.00;0.00;;;;;;;19.40;99.02;101224.81;5053660;28;20377;-48
2023/08/04 08:35:45;;;;;;;0.05;0.05;;;;;;;19.24;100.00;101218.72;5054141;28;20465;-49
2023/08/04 08:38:11;;;;;;;0.00;0.00;;;;;;;19.41;100.00;101226.56;5053896;28;20083;-50
2023/08/04 08:40:36;;;;;;;0.00;0.00;;;;;;;19.62;99.32;101232.63;5053382;28;20024;-50
2023/08/04 08:43:01;;;;;;;0.00;0.00;;;;;;;19.20;96.76;101226.59;5054312;28;20115;-50
2023/08/04 08:45:27;;;;;;;0.00;0.00;;;;;;;19.11;100.00;101237.03;5053055;28;20048;-49
2023/08/04 08:47:54;;;;;;;0.00;0.00;;;;;;;18.88;100.00;101240.47;5053372;28;20508;-46
2023/08/04 08:50:23;;;;;;;0.00;0.00;;;;;;;18.69;100.00;101244.78;5054205;28;20035;-48
2023/08/04 08:52:56;;;;;;;0.00;0.00;;;;;;;18.67;100.00;101247.38;5053693;28;20263;-47
2023/08/04 08:55:22;;;;;;;0.00;0.00;;;;;;;18.65;100.00;101254.34;5053454;28;20029;-46
2023/08/04 08:57:48;;;;;;;0.00;0.00;;;;;;;18.95;100.00;101252.69;5053975;28;20535;-50
2023/08/04 09:00:13;;;;;;;0.00;0.00;;;;;;;19.23;100.00;101252.72;5053492;28;20094;-49
2023/08/04 09:02:39;;;;;;;0.00;0.00;;;;;;;19.19;95.78;101258.81;5052868;28;20029;-46
2023/08/04 09:05:05;;;;;;;0.00;0.00;;;;;;;19.35;96.23;101257.06;5053960;28;20477;-50
2023/08/04 09:07:30;;;;;;;0.10;0.10;;;;;;;19.33;95.93;101258.81;5053308;28;20029;-51
2023/08/04 09:09:56;;;;;;;0.00;0.00;;;;;;;19.40;93.82;101256.19;5053225;28;20029;-51
2023/08/04 09:12:25;;;;;;;0.03;0.03;;;;;;;19.62;94.39;101264.00;5053806;28;20017;-50
2023/08/04 09:14:53;;;;;;;0.00;0.00;;;;;;;19.81;92.54;101251.78;5053469;28;20029;-46
2023/08/04 09:17:35;;;;;;;0.10;0.10;;;;;;;19.53;93.39;101256.19;5053811;28;20017;-50
2023/08/04 09:20:02;;;;;;;0.00;0.00;;;;;;;20.10;92.72;101263.06;5053507;28;20108;-50
2023/08/04 09:22:28;;;;;;;0.00;0.00;;;;;;;20.02;90.56;101256.09;5052579;28;20056;-49
2023/08/04 09:24:55;;;;;;;0.00;0.00;;;;;;;19.92;89.77;101262.22;5053265;28;20079;-50
2023/08/04 09:27:28;;;;;;;0.00;0.00;;;;;;;20.31;91.24;101268.22;5053095;28;20021;-48
2023/08/04 09:30:01;;;;;;;0.00;0.00;;;;;;;20.37;88.74;101265.59;5052989;28;20108;-48
2023/08/04 09:32:27;;;;;;;0.00;0.00;;;;;;;20.25;89.11;101263.00;5053209;28;20131;-48
2023/08/04 09:35:05;;;;;;;0.00;0.00;;;;;;;20.51;89.38;101264.66;5053102;28;20108;-50
2023/08/04 09:37:32;;;;;;;0.00;0.00;;;;;;;20.47;89.19;101269.03;5052426;28;20031;-48
2023/08/04 09:39:58;;;;;;;;;;;;;;;20.94;93.57;101269.69;5053492;28;20115;-51
2023/08/04 09:42:24;;;;;;;0.00;0.00;;;;;;;20.65;83.67;101260.19;5052650;28;20283;-49
2023/08/04 09:44:51;;;;;;;0.00;0.00;;;;;;;20.48;86.94;101272.53;5052451;28;20443;-50
2023/08/04 09:47:17;;;;;;;0.00;0.00;;;;;;;19.95;88.71;101280.56;5052953;28;20487;-49
2023/08/04 09:49:45;;;;;;;0.00;0.00;;;;;;;19.41;84.63;101272.75;5052464;28;20020;-50
2023/08/04 09:52:10;;;;;;;0.00;0.00;;;;;;;19.01;89.30;101275.34;5052247;28;20370;-50
2023/08/04 09:54:35;;;;;;;0.00;0.00;;;;;;;18.76;91.18;101273.50;5052663;28;20087;-50
2023/08/04 09:57:02;;;;;;;0.05;0.05;;;;;;;19.44;92.76;101270.13;5052343;28;20078;-49
2023/08/04 09:59:28;;;;;;;0.00;0.00;;;;;;;19.20;89.87;101271.00;5052093;28;20017;-48
2023/08/04 10:01:54;;;;;;;0.00;0.00;;;;;;;19.23;91.19;101271.00;5052544;28;20048;-49
2023/08/04 10:04:21;;;;;;;0.00;0.00;;;;;;;19.47;93.43;101275.38;5052146;28;20025;-49
2023/08/04 10:06:46;;;;;;;0.00;0.00;;;;;;;20.05;93.54;101274.44;5052525;28;20029;-51
2023/08/04 10:09:12;;;;;;;0.00;0.00;;;;;;;20.27;91.86;101265.63;5052422;28;20056;-48
2023/08/04 10:11:37;;;;;;;0.00;0.00;;;;;;;20.51;89.98;101269.88;5051956;28;20028;-50
2023/08/04 10:14:04;;;;;;;0.00;0.00;;;;;;;21.21;82.69;101272.97;5052640;28;20033;-50
2023/08/04 10:16:35;;;;;;;0.00;0.00;;;;;;;21.81;79.56;101271.59;5052133;28;20485;-51
2023/08/04 10:19:03;;;;;;;0.00;0.00;;;;;;;22.40;76.35;101271.81;5052094;28;20488;-50
2023/08/04 10:21:33;;;;;;;0.00;0.00;;;;;;;22.43;75.63;101260.41;5052260;28;20025;-50
2023/08/04 10:23:59;;;;;;;0.00;0.00;;;;;;;22.01;72.36;101276.59;5052353;28;20389;-49
2023/08/04 10:26:24;;;;;;;0.13;0.10;;;;;;;22.60;74.31;101274.16;5051858;28;20031;-50
2023/08/04 10:29:05;;;;;;;0.00;0.00;;;;;;;22.95;75.55;101275.41;5052496;28;20028;-49
2023/08/04 10:31:53;;;;;;;0.00;0.00;;;;;;;22.29;76.96;101279.78;5052010;28;20489;-51
2023/08/04 10:34:32;;;;;;;0.00;0.00;;;;;;;21.58;79.11;101283.16;5052185;28;20475;-50
2023/08/04 10:37:11;;;;;;;0.00;0.00;;;;;;;21.21;78.60;101275.56;5052610;28;20076;-47
2023/08/04 10:39:37;;;;;;;0.00;0.00;;;;;;;21.31;77.63;101279.88;5051675;28;20123;-48
2023/08/04 10:42:09;;;;;;;0.00;0.00;;;;;;;21.29;78.96;101281.66;5052313;28;20481;-49
2023/08/04 10:44:47;;;;;;;0.00;0.00;;;;;;;21.18;80.29;101284.34;5051595;28;20102;-51
2023/08/04 10:47:12;;;;;;;0.00;0.00;;;;;;;21.11;81.33;101281.78;5051990;28;20082;-48
2023/08/04 10:49:38;;;;;;;0.00;0.00;;;;;;;21.32;79.48;101289.47;5052241;28;20025;-51
2023/08/04 10:52:04;;;;;;;0.00;0.00;;;;;;;21.63;79.92;101286.63;5052453;28;20033;-49
2023/08/04 10:54:29;;;;;;;0.00;0.00;;;;;;;21.60;76.85;101291.91;5051437;28;20025;-46
2023/08/04 10:56:56;;;;;;;0.00;0.00;;;;;;;21.55;79.56;101293.69;5052264;28;20128;-51
2023/08/04 10:59:21;;;;;;;0.20;0.00;;;;;;;21.56;81.33;101294.56;5052007;28;20096;-50
2023/08/04 11:01:47;;;;;;;0.00;0.00;;;;;;;21.03;78.65;101300.16;5051471;28;20492;-50
2023/08/04 11:04:14;;;;;;;0.00;0.00;;;;;;;20.82;86.25;101302.03;5052357;28;20104;-50
2023/08/04 11:06:39;;;;;;;0.00;0.00;;;;;;;20.69;85.96;101300.34;5051630;28;20378;-47
2023/08/04 11:09:05;;;;;;;0.00;0.00;;;;;;;21.41;86.77;101303.38;5053351;28;20536;-46
2023/08/04 11:11:31;;;;;;;0.00;0.00;;;;;;;21.56;77.30;101297.19;5055576;28;20100;-49
2023/08/04 11:13:57;;;;;;;0.00;0.00;;;;;;;22.15;75.74;101305.34;5055808;28;20096;-49
2023/08/04 11:16:30;;;;;;;0.00;0.00;;;;;;;22.88;72.19;101301.81;5055068;28;20025;-46